Main page
METAR-TAF:

METAR-TAF

Airports :

Jeddah, Saudi Arabia

King Abdulaziz International Airport

latitude: 21-42N, longitude: 039-11E, elevation: 15 m

Current weather observation

The report was made 52 minutes ago, at 11:00 UTC
Wind 12 kt from the Southwest
Temperature 35°C
Humidity 60%
Pressure 1000 hPa
Visibility 10 km or more
no clouds below 1500 m and no cumulonimbus

METAR: OEJN 211100Z 22012KT CAVOK 35/26 Q1000 NOSIG

Time: 14:52 (11:52 UTC)

Forecast

The report was made 52 minutes ago, at 11:00 UTC
Forecast valid from 21 at 12 UTC to 22 at 18 UTC
Wind 14 kt from the West/Northwest
Visibility: 7000 m
Few clouds at a height of 4000 ft
Scattered clouds at a height of 10000 ft
Temporary
from 21 at 12 UTC to 21 at 18 UTC
Wind 20 kt from variable directions
Visibility: 3000 m
Few clouds at a height of 3500 ft, Cumulonimbus.
Scattered clouds at a height of 4000 ft

TAF: OEJN 211100Z 2112/2218 29014KT 7000 FEW040 SCT100 TEMPO 2112/2118 VRB20KT 3000 FEW035CB SCT040

Weather observations and forecasts of more than 4000 airports (METAR and TAF reports).

The available stations are represented by yellow and red dots on the map.

Hover mouse over dot to see the name of the station.

Then click to see weather observations and forecasts.

To change the map : click on the green buttons with a black cross to zoom in, on the green button with a dash to zoom out, or on the green arrows for adjacent maps.


METAR-TAF: